sensor_id;sensor_type;location;lat;lon;timestamp;pressure;altitude;pressure_sealevel;temperature;humidity
34243;BME280;20504;43.214;27.920;2023-03-03T00:00:44;98358.28;;;9.10;100.00
34243;BME280;20504;43.214;27.920;2023-03-03T00:03:14;98378.75;;;9.08;100.00
34243;BME280;20504;43.214;27.920;2023-03-03T00:05:40;98366.94;;;9.13;100.00
34243;BME280;20504;43.214;27.920;2023-03-03T00:08:07;98407.97;;;9.07;100.00
34243;BME280;20504;43.214;27.920;2023-03-03T00:10:33;98408.81;;;9.07;100.00
34243;BME280;20504;43.214;27.920;2023-03-03T00:12:58;98451.16;;;8.98;100.00
34243;BME280;20504;43.214;27.920;2023-03-03T00:15:25;98470.75;;;9.05;100.00
34243;BME280;20504;43.214;27.920;2023-03-03T00:17:51;98466.72;;;9.01;100.00
34243;BME280;20504;43.214;27.920;2023-03-03T00:22:51;98495.66;;;8.93;100.00
34243;BME280;20504;43.214;27.920;2023-03-03T00:25:30;98494.69;;;9.03;100.00
34243;BME280;20504;43.214;27.920;2023-03-03T00:28:05;98503.75;;;9.01;100.00
34243;BME280;20504;43.214;27.920;2023-03-03T00:30:31;98503.31;;;9.05;100.00
34243;BME280;20504;43.214;27.920;2023-03-03T00:32:57;98518.47;;;9.03;100.00
34243;BME280;20504;43.214;27.920;2023-03-03T00:35:26;98506.66;;;9.07;100.00
34243;BME280;20504;43.214;27.920;2023-03-03T00:37:57;98498.56;;;9.09;100.00
34243;BME280;20504;43.214;27.920;2023-03-03T00:40:25;98477.84;;;9.24;100.00
34243;BME280;20504;43.214;27.920;2023-03-03T00:42:57;98480.34;;;9.25;100.00
34243;BME280;20504;43.214;27.920;2023-03-03T00:45:30;98505.13;;;9.24;100.00
34243;BME280;20504;43.214;27.920;2023-03-03T00:48:10;98524.63;;;9.14;100.00
34243;BME280;20504;43.214;27.920;2023-03-03T00:50:42;98494.97;;;9.29;100.00
34243;BME280;20504;43.214;27.920;2023-03-03T00:53:16;98520.56;;;9.29;100.00
34243;BME280;20504;43.214;27.920;2023-03-03T00:55:42;98554.28;;;9.27;100.00
34243;BME280;20504;43.214;27.920;2023-03-03T00:58:08;98555.94;;;9.28;100.00
34243;BME280;20504;43.214;27.920;2023-03-03T01:00:35;98589.63;;;9.26;100.00
34243;BME280;20504;43.214;27.920;2023-03-03T01:03:04;98619.56;;;9.26;100.00
34243;BME280;20504;43.214;27.920;2023-03-03T01:05:30;98668.00;;;9.17;100.00
34243;BME280;20504;43.214;27.920;2023-03-03T01:07:55;98652.00;;;9.19;100.00
34243;BME280;20504;43.214;27.920;2023-03-03T01:10:21;98652.22;;;9.06;100.00
34243;BME280;20504;43.214;27.920;2023-03-03T01:12:47;98653.78;;;9.18;100.00
34243;BME280;20504;43.214;27.920;2023-03-03T01:15:14;98690.84;;;9.28;100.00
34243;BME280;20504;43.214;27.920;2023-03-03T01:17:40;98690.97;;;9.26;100.00
34243;BME280;20504;43.214;27.920;2023-03-03T01:20:08;98735.50;;;9.21;100.00
34243;BME280;20504;43.214;27.920;2023-03-03T01:22:34;98755.44;;;9.25;100.00
34243;BME280;20504;43.214;27.920;2023-03-03T01:24:59;98760.50;;;9.07;100.00
34243;BME280;20504;43.214;27.920;2023-03-03T01:27:25;98777.41;;;9.16;100.00
34243;BME280;20504;43.214;27.920;2023-03-03T01:29:52;98769.53;;;9.35;100.00
34243;BME280;20504;43.214;27.920;2023-03-03T01:32:18;98790.16;;;9.32;100.00
34243;BME280;20504;43.214;27.920;2023-03-03T01:34:43;98785.94;;;9.29;100.00
34243;BME280;20504;43.214;27.920;2023-03-03T01:37:09;98794.47;;;9.33;100.00
34243;BME280;20504;43.214;27.920;2023-03-03T01:39:34;98801.28;;;9.35;100.00
34243;BME280;20504;43.214;27.920;2023-03-03T01:42:01;98856.50;;;9.29;100.00
34243;BME280;20504;43.214;27.920;2023-03-03T01:44:27;98855.81;;;9.27;100.00
34243;BME280;20504;43.214;27.920;2023-03-03T01:47:15;98836.94;;;9.31;100.00
34243;BME280;20504;43.214;27.920;2023-03-03T01:49:55;98826.59;;;9.28;100.00
34243;BME280;20504;43.214;27.920;2023-03-03T01:52:31;98843.41;;;9.27;100.00
34243;BME280;20504;43.214;27.920;2023-03-03T01:55:02;98868.47;;;9.23;100.00
34243;BME280;20504;43.214;27.920;2023-03-03T01:57:34;98832.72;;;9.29;100.00
34243;BME280;20504;43.214;27.920;2023-03-03T02:00:04;98852.41;;;9.15;100.00
34243;BME280;20504;43.214;27.920;2023-03-03T02:02:30;98853.19;;;9.06;100.00
34243;BME280;20504;43.214;27.920;2023-03-03T02:04:56;98834.69;;;9.06;100.00
34243;BME280;20504;43.214;27.920;2023-03-03T02:07:24;98811.06;;;9.14;100.00
34243;BME280;20504;43.214;27.920;2023-03-03T02:09:57;98823.91;;;9.19;100.00
34243;BME280;20504;43.214;27.920;2023-03-03T02:12:50;98785.75;;;9.21;100.00
34243;BME280;20504;43.214;27.920;2023-03-03T02:17:51;98751.44;;;9.31;100.00
34243;BME280;20504;43.214;27.920;2023-03-03T02:25:46;98685.91;;;9.54;100.00
34243;BME280;20504;43.214;27.920;2023-03-03T02:28:14;98665.16;;;9.49;100.00
34243;BME280;20504;43.214;27.920;2023-03-03T02:30:39;98712.66;;;9.60;100.00
34243;BME280;20504;43.214;27.920;2023-03-03T02:33:06;98729.91;;;9.64;100.00
34243;BME280;20504;43.214;27.920;2023-03-03T02:35:37;98768.63;;;9.56;100.00
34243;BME280;20504;43.214;27.920;2023-03-03T02:40:36;98858.59;;;9.25;100.00
34243;BME280;20504;43.214;27.920;2023-03-03T02:43:05;98873.38;;;9.07;100.00
34243;BME280;20504;43.214;27.920;2023-03-03T02:45:32;98792.16;;;9.49;100.00
34243;BME280;20504;43.214;27.920;2023-03-03T02:47:58;98770.03;;;9.60;100.00
34243;BME280;20504;43.214;27.920;2023-03-03T02:50:23;98784.59;;;9.45;100.00
34243;BME280;20504;43.214;27.920;2023-03-03T02:52:49;98860.59;;;9.33;100.00
34243;BME280;20504;43.214;27.920;2023-03-03T02:55:14;98886.28;;;9.21;100.00
34243;BME280;20504;43.214;27.920;2023-03-03T02:57:39;98884.47;;;9.22;100.00
34243;BME280;20504;43.214;27.920;2023-03-03T03:00:05;98865.81;;;9.23;100.00
34243;BME280;20504;43.214;27.920;2023-03-03T03:02:31;98872.41;;;9.08;100.00
34243;BME280;20504;43.214;27.920;2023-03-03T03:04:57;98882.16;;;9.07;100.00
34243;BME280;20504;43.214;27.920;2023-03-03T03:07:22;98870.22;;;9.13;100.00
34243;BME280;20504;43.214;27.920;2023-03-03T03:09:47;98798.13;;;9.11;100.00
34243;BME280;20504;43.214;27.920;2023-03-03T03:12:14;98829.53;;;9.04;100.00
34243;BME280;20504;43.214;27.920;2023-03-03T03:14:40;98819.88;;;8.94;100.00
34243;BME280;20504;43.214;27.920;2023-03-03T03:17:05;98769.41;;;9.37;100.00
34243;BME280;20504;43.214;27.920;2023-03-03T03:19:31;98747.69;;;9.43;100.00
34243;BME280;20504;43.214;27.920;2023-03-03T03:21:56;98763.06;;;9.49;100.00
34243;BME280;20504;43.214;27.920;2023-03-03T03:24:22;98774.59;;;9.48;100.00
34243;BME280;20504;43.214;27.920;2023-03-03T03:26:47;98812.03;;;9.44;100.00
34243;BME280;20504;43.214;27.920;2023-03-03T03:29:13;98822.47;;;9.45;100.00
34243;BME280;20504;43.214;27.920;2023-03-03T03:31:38;98811.94;;;9.55;100.00
34243;BME280;20504;43.214;27.920;2023-03-03T03:34:04;98832.56;;;9.51;100.00
34243;BME280;20504;43.214;27.920;2023-03-03T03:36:29;98866.34;;;9.48;100.00
34243;BME280;20504;43.214;27.920;2023-03-03T03:38:55;98849.56;;;9.58;100.00
34243;BME280;20504;43.214;27.920;2023-03-03T03:41:20;98877.91;;;9.47;100.00
34243;BME280;20504;43.214;27.920;2023-03-03T03:43:45;98863.34;;;9.52;100.00
34243;BME280;20504;43.214;27.920;2023-03-03T03:46:11;98912.19;;;9.48;100.00
34243;BME280;20504;43.214;27.920;2023-03-03T03:48:37;98919.75;;;9.53;100.00
34243;BME280;20504;43.214;27.920;2023-03-03T03:51:03;98951.38;;;9.33;100.00
34243;BME280;20504;43.214;27.920;2023-03-03T03:53:29;98949.34;;;9.47;100.00
34243;BME280;20504;43.214;27.920;2023-03-03T03:55:54;98961.31;;;9.41;100.00
34243;BME280;20504;43.214;27.920;2023-03-03T03:58:20;98979.69;;;9.43;100.00
34243;BME280;20504;43.214;27.920;2023-03-03T04:00:46;98977.06;;;9.43;100.00
34243;BME280;20504;43.214;27.920;2023-03-03T04:03:11;99007.91;;;9.32;100.00
34243;BME280;20504;43.214;27.920;2023-03-03T04:05:38;99019.19;;;9.34;100.00
34243;BME280;20504;43.214;27.920;2023-03-03T04:08:04;99003.94;;;9.27;100.00
34243;BME280;20504;43.214;27.920;2023-03-03T04:10:29;99000.88;;;9.43;100.00
34243;BME280;20504;43.214;27.920;2023-03-03T04:12:55;98989.88;;;9.47;100.00
34243;BME280;20504;43.214;27.920;2023-03-03T04:15:20;99014.31;;;9.30;100.00
34243;BME280;20504;43.214;27.920;2023-03-03T04:17:46;99015.91;;;9.42;100.00
34243;BME280;20504;43.214;27.920;2023-03-03T04:20:13;99013.38;;;9.40;100.00
34243;BME280;20504;43.214;27.920;2023-03-03T04:22:39;98967.69;;;9.59;100.00
34243;BME280;20504;43.214;27.920;2023-03-03T04:25:06;99020.09;;;9.45;100.00
34243;BME280;20504;43.214;27.920;2023-03-03T04:27:35;98983.97;;;9.55;100.00
34243;BME280;20504;43.214;27.920;2023-03-03T04:30:02;99000.13;;;9.52;100.00
34243;BME280;20504;43.214;27.920;2023-03-03T04:32:28;98995.78;;;9.51;100.00
34243;BME280;20504;43.214;27.920;2023-03-03T04:34:54;99022.56;;;9.57;100.00
34243;BME280;20504;43.214;27.920;2023-03-03T04:37:20;99000.72;;;9.65;100.00
34243;BME280;20504;43.214;27.920;2023-03-03T04:39:45;99020.75;;;9.58;100.00
34243;BME280;20504;43.214;27.920;2023-03-03T04:42:11;99034.00;;;9.58;100.00
34243;BME280;20504;43.214;27.920;2023-03-03T04:44:37;99069.91;;;9.39;100.00
34243;BME280;20504;43.214;27.920;2023-03-03T04:47:03;99061.53;;;9.34;100.00
34243;BME280;20504;43.214;27.920;2023-03-03T04:49:28;99074.00;;;9.44;100.00
34243;BME280;20504;43.214;27.920;2023-03-03T04:51:54;99032.31;;;9.57;100.00
34243;BME280;20504;43.214;27.920;2023-03-03T04:54:19;99040.97;;;9.59;100.00
34243;BME280;20504;43.214;27.920;2023-03-03T04:56:45;99044.31;;;9.61;100.00
34243;BME280;20504;43.214;27.920;2023-03-03T04:59:10;99054.59;;;9.54;100.00
34243;BME280;20504;43.214;27.920;2023-03-03T05:01:36;99049.34;;;9.64;100.00
34243;BME280;20504;43.214;27.920;2023-03-03T05:04:01;99087.44;;;9.52;100.00
34243;BME280;20504;43.214;27.920;2023-03-03T05:06:27;99095.38;;;9.52;100.00
34243;BME280;20504;43.214;27.920;2023-03-03T05:08:52;99122.72;;;9.41;100.00
34243;BME280;20504;43.214;27.920;2023-03-03T05:11:19;99107.28;;;9.46;100.00
34243;BME280;20504;43.214;27.920;2023-03-03T05:13:44;99138.50;;;9.31;100.00
34243;BME280;20504;43.214;27.920;2023-03-03T05:16:10;99114.66;;;9.43;100.00
34243;BME280;20504;43.214;27.920;2023-03-03T05:18:36;99118.97;;;9.44;100.00
34243;BME280;20504;43.214;27.920;2023-03-03T05:21:01;99087.63;;;9.60;100.00
34243;BME280;20504;43.214;27.920;2023-03-03T05:23:27;99095.44;;;9.61;100.00
34243;BME280;20504;43.214;27.920;2023-03-03T05:25:52;99096.50;;;9.70;100.00
34243;BME280;20504;43.214;27.920;2023-03-03T05:28:18;99103.94;;;9.76;100.00
34243;BME280;20504;43.214;27.920;2023-03-03T05:30:43;99126.47;;;9.70;100.00
34243;BME280;20504;43.214;27.920;2023-03-03T05:33:12;99163.66;;;9.69;100.00
34243;BME280;20504;43.214;27.920;2023-03-03T05:35:38;99160.53;;;9.64;100.00
34243;BME280;20504;43.214;27.920;2023-03-03T05:38:03;99142.84;;;9.85;100.00
34243;BME280;20504;43.214;27.920;2023-03-03T05:40:29;99167.16;;;9.90;100.00
34243;BME280;20504;43.214;27.920;2023-03-03T05:42:54;99194.94;;;9.64;100.00
34243;BME280;20504;43.214;27.920;2023-03-03T05:45:20;99191.56;;;9.73;100.00
34243;BME280;20504;43.214;27.920;2023-03-03T05:47:49;99233.50;;;9.89;100.00
34243;BME280;20504;43.214;27.920;2023-03-03T05:50:16;99233.56;;;9.98;100.00
34243;BME280;20504;43.214;27.920;2023-03-03T05:52:41;99280.22;;;9.79;100.00
34243;BME280;20504;43.214;27.920;2023-03-03T05:55:07;99269.22;;;9.94;100.00
34243;BME280;20504;43.214;27.920;2023-03-03T05:57:33;99241.63;;;10.08;100.00
34243;BME280;20504;43.214;27.920;2023-03-03T06:00:00;99251.69;;;10.14;100.00
34243;BME280;20504;43.214;27.920;2023-03-03T06:02:25;99278.34;;;10.01;100.00
34243;BME280;20504;43.214;27.920;2023-03-03T06:04:51;99296.16;;;9.99;100.00
34243;BME280;20504;43.214;27.920;2023-03-03T06:07:16;99291.25;;;10.06;100.00
34243;BME280;20504;43.214;27.920;2023-03-03T06:09:42;99291.38;;;10.05;100.00
34243;BME280;20504;43.214;27.920;2023-03-03T06:12:07;99276.06;;;10.08;100.00
34243;BME280;20504;43.214;27.920;2023-03-03T06:14:33;99284.19;;;10.27;100.00
34243;BME280;20504;43.214;27.920;2023-03-03T06:16:58;99276.06;;;10.08;100.00
34243;BME280;20504;43.214;27.920;2023-03-03T06:19:24;99373.09;;;9.98;100.00
34243;BME280;20504;43.214;27.920;2023-03-03T06:21:49;99356.00;;;10.02;100.00
34243;BME280;20504;43.214;27.920;2023-03-03T06:24:15;99355.16;;;10.01;100.00
34243;BME280;20504;43.214;27.920;2023-03-03T06:26:41;99391.56;;;9.88;100.00
34243;BME280;20504;43.214;27.920;2023-03-03T06:29:06;99379.72;;;10.03;100.00
34243;BME280;20504;43.214;27.920;2023-03-03T06:31:32;99365.53;;;10.05;100.00
34243;BME280;20504;43.214;27.920;2023-03-03T06:33:57;99365.03;;;10.11;100.00
34243;BME280;20504;43.214;27.920;2023-03-03T06:36:23;99377.81;;;10.06;100.00
34243;BME280;20504;43.214;27.920;2023-03-03T06:38:50;99433.19;;;9.97;100.00
34243;BME280;20504;43.214;27.920;2023-03-03T06:41:15;99460.41;;;9.88;100.00
34243;BME280;20504;43.214;27.920;2023-03-03T06:43:41;99424.28;;;9.98;100.00
34243;BME280;20504;43.214;27.920;2023-03-03T06:46:06;99432.69;;;10.03;100.00
34243;BME280;20504;43.214;27.920;2023-03-03T06:48:32;99421.38;;;10.13;100.00
34243;BME280;20504;43.214;27.920;2023-03-03T06:50:59;99440.28;;;9.97;100.00
34243;BME280;20504;43.214;27.920;2023-03-03T06:53:26;99442.09;;;10.08;100.00
34243;BME280;20504;43.214;27.920;2023-03-03T06:55:54;99411.13;;;10.19;100.00
34243;BME280;20504;43.214;27.920;2023-03-03T06:58:21;99432.22;;;10.10;100.00
34243;BME280;20504;43.214;27.920;2023-03-03T07:00:56;99403.81;;;10.23;100.00
34243;BME280;20504;43.214;27.920;2023-03-03T07:03:24;99442.47;;;10.25;100.00
34243;BME280;20504;43.214;27.920;2023-03-03T07:05:51;99454.34;;;10.20;100.00
34243;BME280;20504;43.214;27.920;2023-03-03T07:08:20;99434.63;;;10.35;100.00
34243;BME280;20504;43.214;27.920;2023-03-03T07:10:47;99440.03;;;10.45;100.00
34243;BME280;20504;43.214;27.920;2023-03-03T07:13:21;99451.22;;;10.37;100.00
34243;BME280;20504;43.214;27.920;2023-03-03T07:15:48;99440.03;;;10.34;100.00
34243;BME280;20504;43.214;27.920;2023-03-03T07:21:16;99406.53;;;10.76;100.00
34243;BME280;20504;43.214;27.920;2023-03-03T07:23:44;99419.78;;;10.76;100.00
34243;BME280;20504;43.214;27.920;2023-03-03T07:26:15;99434.72;;;10.77;100.00
34243;BME280;20504;43.214;27.920;2023-03-03T07:28:43;99378.91;;;10.78;100.00
34243;BME280;20504;43.214;27.920;2023-03-03T07:31:24;99364.50;;;10.92;100.00
34243;BME280;20504;43.214;27.920;2023-03-03T07:33:51;99363.53;;;10.93;100.00
34243;BME280;20504;43.214;27.920;2023-03-03T07:36:36;99353.03;;;11.12;100.00
34243;BME280;20504;43.214;27.920;2023-03-03T07:39:27;99342.16;;;11.36;100.00
34243;BME280;20504;43.214;27.920;2023-03-03T07:42:44;99355.19;;;11.49;100.00
34243;BME280;20504;43.214;27.920;2023-03-03T07:44:44;99405.53;;;11.30;100.00
34243;BME280;20504;43.214;27.920;2023-03-03T07:49:38;99421.19;;;11.53;100.00
34243;BME280;20504;43.214;27.920;2023-03-03T07:52:28;99425.44;;;11.66;100.00
34243;BME280;20504;43.214;27.920;2023-03-03T07:54:57;99493.38;;;11.47;100.00
34243;BME280;20504;43.214;27.920;2023-03-03T07:57:34;99458.00;;;11.68;100.00
34243;BME280;20504;43.214;27.920;2023-03-03T08:03:02;99473.50;;;11.83;100.00
34243;BME280;20504;43.214;27.920;2023-03-03T08:05:33;99491.47;;;11.91;100.00
34243;BME280;20504;43.214;27.920;2023-03-03T08:13:18;99535.03;;;12.09;100.00
34243;BME280;20504;43.214;27.920;2023-03-03T08:15:46;99510.38;;;12.28;100.00
34243;BME280;20504;43.214;27.920;2023-03-03T08:18:41;99550.75;;;12.22;100.00
34243;BME280;20504;43.214;27.920;2023-03-03T08:21:12;99580.09;;;12.11;100.00
34243;BME280;20504;43.214;27.920;2023-03-03T08:23:38;99550.63;;;12.24;100.00
34243;BME280;20504;43.214;27.920;2023-03-03T08:26:04;99344.59;;;12.68;100.00
34243;BME280;20504;43.214;27.920;2023-03-03T08:28:30;99329.03;;;12.73;100.00
34243;BME280;20504;43.214;27.920;2023-03-03T08:30:55;99313.22;;;12.71;100.00
34243;BME280;20504;43.214;27.920;2023-03-03T08:33:21;99298.63;;;12.85;100.00
34243;BME280;20504;43.214;27.920;2023-03-03T08:35:47;99291.59;;;13.03;100.00
34243;BME280;20504;43.214;27.920;2023-03-03T08:38:14;99275.22;;;13.45;100.00
34243;BME280;20504;43.214;27.920;2023-03-03T08:40:40;99356.66;;;13.48;100.00
34243;BME280;20504;43.214;27.920;2023-03-03T08:43:06;99454.66;;;13.25;100.00
34243;BME280;20504;43.214;27.920;2023-03-03T08:45:33;99468.09;;;13.33;100.00
34243;BME280;20504;43.214;27.920;2023-03-03T08:47:58;99477.91;;;13.42;100.00
34243;BME280;20504;43.214;27.920;2023-03-03T08:50:25;99452.88;;;13.72;100.00
34243;BME280;20504;43.214;27.920;2023-03-03T08:52:50;99392.19;;;13.93;100.00
34243;BME280;20504;43.214;27.920;2023-03-03T08:55:16;99397.50;;;14.03;100.00
34243;BME280;20504;43.214;27.920;2023-03-03T08:57:42;99469.88;;;13.61;100.00
34243;BME280;20504;43.214;27.920;2023-03-03T09:00:12;99487.38;;;13.74;100.00
34243;BME280;20504;43.214;27.920;2023-03-03T09:02:38;99487.34;;;13.83;100.00
34243;BME280;20504;43.214;27.920;2023-03-03T09:05:04;99411.63;;;14.13;100.00
34243;BME280;20504;43.214;27.920;2023-03-03T09:07:30;99434.38;;;14.08;100.00
34243;BME280;20504;43.214;27.920;2023-03-03T09:09:56;99489.28;;;13.91;100.00
34243;BME280;20504;43.214;27.920;2023-03-03T09:12:28;99537.56;;;13.88;100.00
34243;BME280;20504;43.214;27.920;2023-03-03T09:14:57;99577.41;;;13.80;100.00
34243;BME280;20504;43.214;27.920;2023-03-03T09:17:34;99538.94;;;14.02;100.00
34243;BME280;20504;43.214;27.920;2023-03-03T09:20:21;99612.47;;;13.66;100.00
34243;BME280;20504;43.214;27.920;2023-03-03T09:22:48;99572.38;;;13.77;100.00
34243;BME280;20504;43.214;27.920;2023-03-03T09:25:19;99575.00;;;13.86;100.00
34243;BME280;20504;43.214;27.920;2023-03-03T09:27:46;99594.06;;;13.91;100.00
34243;BME280;20504;43.214;27.920;2023-03-03T09:30:34;99550.38;;;14.21;100.00
34243;BME280;20504;43.214;27.920;2023-03-03T09:33:01;99619.75;;;13.92;100.00
34243;BME280;20504;43.214;27.920;2023-03-03T09:35:41;99648.22;;;13.92;100.00
34243;BME280;20504;43.214;27.920;2023-03-03T09:44:04;99695.66;;;13.79;100.00
34243;BME280;20504;43.214;27.920;2023-03-03T09:49:49;99649.91;;;13.74;100.00
34243;BME280;20504;43.214;27.920;2023-03-03T09:52:25;99649.63;;;13.67;100.00
34243;BME280;20504;43.214;27.920;2023-03-03T09:55:24;99717.16;;;13.27;100.00
34243;BME280;20504;43.214;27.920;2023-03-03T09:58:33;99695.59;;;13.40;100.00
34243;BME280;20504;43.214;27.920;2023-03-03T10:01:31;99588.34;;;13.86;100.00
34243;BME280;20504;43.214;27.920;2023-03-03T10:20:37;99557.38;;;13.66;100.00
34243;BME280;20504;43.214;27.920;2023-03-03T10:25:56;99530.25;;;14.00;100.00
34243;BME280;20504;43.214;27.920;2023-03-03T10:31:22;99580.78;;;13.72;100.00
34243;BME280;20504;43.214;27.920;2023-03-03T10:37:00;99565.09;;;13.59;100.00
34243;BME280;20504;43.214;27.920;2023-03-03T10:55:56;99561.56;;;13.69;100.00
34243;BME280;20504;43.214;27.920;2023-03-03T10:58:36;99510.34;;;13.84;100.00
34243;BME280;20504;43.214;27.920;2023-03-03T11:01:43;99483.97;;;13.91;100.00
34243;BME280;20504;43.214;27.920;2023-03-03T11:09:51;99411.41;;;14.24;100.00
34243;BME280;20504;43.214;27.920;2023-03-03T11:15:07;99395.03;;;14.65;100.00
34243;BME280;20504;43.214;27.920;2023-03-03T11:20:54;99642.75;;;13.45;100.00
34243;BME280;20504;43.214;27.920;2023-03-03T11:23:26;99605.44;;;13.36;100.00
34243;BME280;20504;43.214;27.920;2023-03-03T11:36:40;99369.69;;;14.06;100.00
34243;BME280;20504;43.214;27.920;2023-03-03T11:39:10;99310.44;;;14.57;100.00
34243;BME280;20504;43.214;27.920;2023-03-03T11:41:46;99212.41;;;15.19;100.00
34243;BME280;20504;43.214;27.920;2023-03-03T11:47:03;99232.75;;;16.04;100.00
34243;BME280;20504;43.214;27.920;2023-03-03T11:55:12;99275.91;;;16.50;100.00
34243;BME280;20504;43.214;27.920;2023-03-03T12:00:32;99243.59;;;17.17;100.00
34243;BME280;20504;43.214;27.920;2023-03-03T12:05:52;99332.69;;;16.94;100.00
34243;BME280;20504;43.214;27.920;2023-03-03T12:11:05;99393.00;;;16.48;100.00
34243;BME280;20504;43.214;27.920;2023-03-03T12:16:38;99358.72;;;16.52;100.00
34243;BME280;20504;43.214;27.920;2023-03-03T12:27:53;99456.63;;;16.20;100.00
34243;BME280;20504;43.214;27.920;2023-03-03T12:43:56;99544.47;;;14.92;100.00
34243;BME280;20504;43.214;27.920;2023-03-03T12:49:19;99449.41;;;14.81;100.00
34243;BME280;20504;43.214;27.920;2023-03-03T13:00:27;99620.31;;;13.28;100.00
34243;BME280;20504;43.214;27.920;2023-03-03T13:10:44;99517.94;;;12.92;100.00
34243;BME280;20504;43.214;27.920;2023-03-03T13:13:26;99442.03;;;13.08;100.00
34243;BME280;20504;43.214;27.920;2023-03-03T13:16:11;99411.63;;;13.10;100.00
34243;BME280;20504;43.214;27.920;2023-03-03T13:19:00;99376.06;;;13.01;100.00
34243;BME280;20504;43.214;27.920;2023-03-03T13:24:52;99295.38;;;13.48;100.00
34243;BME280;20504;43.214;27.920;2023-03-03T13:27:23;99314.50;;;13.33;100.00
34243;BME280;20504;43.214;27.920;2023-03-03T13:29:58;99357.41;;;13.11;100.00
34243;BME280;20504;43.214;27.920;2023-03-03T13:38:09;99295.94;;;13.04;100.00
34243;BME280;20504;43.214;27.920;2023-03-03T13:43:20;99265.91;;;13.12;100.00
34243;BME280;20504;43.214;27.920;2023-03-03T13:53:51;99320.78;;;12.57;100.00
34243;BME280;20504;43.214;27.920;2023-03-03T13:56:32;99323.56;;;12.46;100.00
34243;BME280;20504;43.214;27.920;2023-03-03T14:07:02;99197.09;;;12.33;100.00
34243;BME280;20504;43.214;27.920;2023-03-03T14:09:44;99118.88;;;12.73;100.00
34243;BME280;20504;43.214;27.920;2023-03-03T14:17:33;99224.78;;;12.40;100.00
34243;BME280;20504;43.214;27.920;2023-03-03T14:20:44;99204.50;;;12.39;100.00
34243;BME280;20504;43.214;27.920;2023-03-03T14:23:26;99236.56;;;12.09;100.00
34243;BME280;20504;43.214;27.920;2023-03-03T14:26:08;99269.47;;;11.77;100.00
34243;BME280;20504;43.214;27.920;2023-03-03T14:28:48;99224.16;;;11.69;100.00
34243;BME280;20504;43.214;27.920;2023-03-03T14:31:27;99212.69;;;11.59;100.00
34243;BME280;20504;43.214;27.920;2023-03-03T14:36:35;99145.56;;;11.28;100.00
34243;BME280;20504;43.214;27.920;2023-03-03T14:39:27;99141.47;;;11.14;100.00
34243;BME280;20504;43.214;27.920;2023-03-03T14:41:56;99093.47;;;11.17;100.00
34243;BME280;20504;43.214;27.920;2023-03-03T14:44:28;99035.34;;;11.24;100.00
34243;BME280;20504;43.214;27.920;2023-03-03T14:49:46;99004.47;;;10.94;100.00
34243;BME280;20504;43.214;27.920;2023-03-03T14:54:45;98915.81;;;10.97;100.00
34243;BME280;20504;43.214;27.920;2023-03-03T14:57:36;98898.94;;;10.98;100.00
34243;BME280;20504;43.214;27.920;2023-03-03T15:00:26;98919.44;;;10.67;100.00
34243;BME280;20504;43.214;27.920;2023-03-03T15:05:28;98762.84;;;10.78;100.00
34243;BME280;20504;43.214;27.920;2023-03-03T15:10:57;98682.06;;;10.82;100.00
34243;BME280;20504;43.214;27.920;2023-03-03T15:13:36;98638.53;;;10.75;100.00
34243;BME280;20504;43.214;27.920;2023-03-03T15:16:31;98605.78;;;10.66;100.00
34243;BME280;20504;43.214;27.920;2023-03-03T15:24:44;98405.53;;;10.72;100.00
34243;BME280;20504;43.214;27.920;2023-03-03T15:27:23;98373.72;;;10.72;100.00
34243;BME280;20504;43.214;27.920;2023-03-03T15:32:38;98378.69;;;10.39;100.00
34243;BME280;20504;43.214;27.920;2023-03-03T15:38:07;98234.06;;;10.72;100.00
34243;BME280;20504;43.214;27.920;2023-03-03T15:40:47;98204.84;;;10.64;100.00
34243;BME280;20504;43.214;27.920;2023-03-03T15:51:23;98125.94;;;10.84;100.00
34243;BME280;20504;43.214;27.920;2023-03-03T15:54:27;98171.16;;;10.56;100.00
34243;BME280;20504;43.214;27.920;2023-03-03T15:57:24;98088.56;;;10.61;100.00
34243;BME280;20504;43.214;27.920;2023-03-03T16:02:55;98113.91;;;10.20;100.00
34243;BME280;20504;43.214;27.920;2023-03-03T16:05:25;98072.50;;;10.11;100.00
34243;BME280;20504;43.214;27.920;2023-03-03T16:11:03;97892.41;;;9.77;100.00
34243;BME280;20504;43.214;27.920;2023-03-03T16:25:01;97291.66;;;10.24;100.00
34243;BME280;20504;43.214;27.920;2023-03-03T16:30:32;97093.91;;;10.16;100.00
34243;BME280;20504;43.214;27.920;2023-03-03T16:40:59;96738.63;;;9.70;100.00
34243;BME280;20504;43.214;27.920;2023-03-03T16:48:55;96218.94;;;9.73;100.00
34243;BME280;20504;43.214;27.920;2023-03-03T16:51:46;96006.94;;;9.76;100.00
34243;BME280;20504;43.214;27.920;2023-03-03T16:54:19;95900.50;;;9.80;100.00
34243;BME280;20504;43.214;27.920;2023-03-03T17:19:28;94958.84;;;9.87;100.00
34243;BME280;20504;43.214;27.920;2023-03-03T17:27:27;94804.25;;;9.94;100.00
34243;BME280;20504;43.214;27.920;2023-03-03T17:45:42;94113.94;;;9.89;100.00
34243;BME280;20504;43.214;27.920;2023-03-03T17:51:00;93845.94;;;10.06;100.00
34243;BME280;20504;43.214;27.920;2023-03-03T18:07:24;93004.34;;;10.19;100.00
34243;BME280;20504;43.214;27.920;2023-03-03T18:18:37;92785.47;;;10.11;100.00
34243;BME280;20504;43.214;27.920;2023-03-03T18:21:16;92713.88;;;10.07;100.00
34243;BME280;20504;43.214;27.920;2023-03-03T18:23:47;92650.56;;;10.16;100.00
34243;BME280;20504;43.214;27.920;2023-03-03T18:36:57;92450.09;;;10.04;100.00
34243;BME280;20504;43.214;27.920;2023-03-03T18:44:55;92382.31;;;9.94;100.00
34243;BME280;20504;43.214;27.920;2023-03-03T18:55:56;92082.63;;;10.04;100.00